Altoona, Iowa
Current Conditions -  °F | °C
As of 2:55 AM on Wednesday 26 Nov 2014 (Local Time) from KIKV Reporting Station
Haze Haze  
Wind Chill: -6°   Ceiling: 300
Heat Index: -2°   Visibility: 1.2mi
Dew Point: -4°   Wind: 8mph
Humidity: 86%   Direction: 140°SE
Pressure: 29.95"   Gusts: NA
Location:  41.64°N, 93.46°W
Report Text: KIKV 260855Z AUTO 14007KT 1 1/4SM BR BKN003 BKN008 OVC017 M02/M04 A2995 RMK AO2
Loading
Personal Weather Stations






























Interactive Weather Map New forecast layout! Learn more

10-Day Weather Forecast

Advertisements
Track Severe Weather on mobile